»·PEaware :: SWA141 KLAX-KDAL

SWA141 :: KLAX-KDAL

FLIGHT INFORMATION

Flight Status: Arrived
Operator:
Southwest Airlines
More flights by this operator :: More flights under this callsign
Pilot: Paul A. (28753)
Aircraft: AIRBUS A320
(A320)
More flights by this aircraft type
Origin: KLAX Los Angeles Intl
United States
Destination: KDAL Dallas Love
United States
More flights between these airports :: More routes between these airports
Route: DOTSS2 CLEEE PKE J74 SJN TXO TURKI JFRYE3
File this flight plan on PilotEdge
Remarks: RMK / SIMBRIEF
Altitude:
(Current/Filed)
33,000ft
Speed:
(Current/Filed)
461kts
Departed: 17-May-20 02:08 PM
Arrived: 17-May-20 04:46 PM
Distance/Time
Traveled:
1080nm/2:38
Distance/Time
To Go:
Arrived

Flight Plot

Page will automatically refresh every two minutes.

Flight plan parsing failed; only flown route is shown


Map Options




Map Legend


Flown Route
Filed Route
Departure Airport
Arrival Airport
Navaid (VOR, NDB)
Fix

Horizontal Profiles

Position Reports

Time Latitude Longitude Heading Altitude Ground
Speed
17-May-20 13:26 33.939920 -118.403847 309 133ft 0kts
17-May-20 13:27 33.939920 -118.403847 309 133ft 0kts
17-May-20 13:28 33.939920 -118.403847 309 133ft 0kts
17-May-20 13:29 33.939920 -118.403847 309 133ft 0kts
17-May-20 13:30 33.939920 -118.403847 309 133ft 0kts
17-May-20 13:31 33.939920 -118.403847 309 133ft 0kts
17-May-20 13:32 33.939920 -118.403847 309 133ft 0kts
17-May-20 13:33 33.939920 -118.403847 309 133ft 0kts
17-May-20 13:34 33.939920 -118.403847 309 133ft 0kts
17-May-20 13:35 33.939920 -118.403847 309 133ft 0kts
17-May-20 13:36 33.939920 -118.403847 309 133ft 0kts
17-May-20 13:37 33.939920 -118.403847 309 133ft 0kts
17-May-20 13:38 33.939920 -118.403847 309 133ft 0kts
17-May-20 13:39 33.939920 -118.403847 309 133ft 0kts
17-May-20 13:40 33.939920 -118.403847 309 133ft 0kts
17-May-20 13:41 33.939920 -118.403847 309 133ft 0kts
17-May-20 13:42 33.939920 -118.403847 309 133ft 0kts
17-May-20 13:43 33.939920 -118.403847 309 133ft 0kts
17-May-20 13:44 33.939920 -118.403847 309 133ft 0kts
17-May-20 13:45 33.939920 -118.403847 309 133ft 0kts
17-May-20 13:46 33.939920 -118.403847 309 133ft 0kts
17-May-20 13:47 33.939847 -118.403743 310 133ft 1kts
17-May-20 13:48 33.939878 -118.403170 212 133ft 2kts
17-May-20 13:49 33.940138 -118.403114 173 133ft 0kts
17-May-20 13:50 33.940138 -118.403114 173 133ft 0kts
17-May-20 13:51 33.940138 -118.403114 173 133ft 0kts
17-May-20 13:52 33.940138 -118.403114 173 133ft 0kts
17-May-20 13:53 33.940138 -118.403114 173 133ft 0kts
17-May-20 13:54 33.940138 -118.403114 173 133ft 0kts
17-May-20 13:55 33.940138 -118.403114 173 133ft 0kts
17-May-20 13:56 33.940124 -118.403112 173 133ft 1kts
17-May-20 13:57 33.938910 -118.402959 173 133ft 6kts
17-May-20 13:58 33.938704 -118.400773 83 133ft 13kts
17-May-20 13:59 33.939148 -118.396425 83 133ft 9kts
17-May-20 14:00 33.939407 -118.393943 82 133ft 11kts
17-May-20 14:01 33.939763 -118.390453 83 133ft 12kts
17-May-20 14:02 33.940216 -118.385988 83 133ft 10kts
17-May-20 14:03 33.940542 -118.382956 82 133ft 16kts
17-May-20 14:04 33.940746 -118.380963 83 133ft 0kts
17-May-20 14:05 33.940746 -118.380963 83 133ft 0kts
17-May-20 14:06 33.939956 -118.380174 224 133ft 8kts
17-May-20 14:07 33.938299 -118.395148 262 133ft 135kts
17-May-20 14:08 33.933003 -118.447957 258 1580ft 168kts
17-May-20 14:09 33.904195 -118.499584 231 2604ft 235kts
17-May-20 14:10 33.855129 -118.559130 195 5297ft 264kts
17-May-20 14:11 33.781233 -118.543511 170 8274ft 278kts
17-May-20 14:12 33.704511 -118.520075 153 10405ft 318kts
17-May-20 14:13 33.664258 -118.409898 113 11228ft 406kts
17-May-20 14:14 33.644362 -118.275703 90 13919ft 425kts
17-May-20 14:15 33.644554 -118.131580 92 16264ft 440kts
17-May-20 14:16 33.644508 -118.002775 92 18112ft 454kts
17-May-20 14:17 33.644268 -117.849117 92 20059ft 468kts
17-May-20 14:18 33.664053 -117.692915 78 21812ft 485kts
17-May-20 14:19 33.694351 -117.534855 78 23016ft 489kts
17-May-20 14:20 33.725325 -117.372451 78 24288ft 505kts
17-May-20 14:21 33.752770 -117.205720 92 25872ft 506kts
17-May-20 14:22 33.747404 -117.038560 93 27671ft 499kts
17-May-20 14:23 33.743846 -116.873484 93 29426ft 490kts
17-May-20 14:24 33.740147 -116.709803 93 30707ft 489kts
17-May-20 14:25 33.736264 -116.547328 93 31850ft 486kts
17-May-20 14:26 33.732175 -116.385410 93 32845ft 484kts
17-May-20 14:27 33.727503 -116.223339 94 32845ft 481kts
17-May-20 14:28 33.725832 -116.062212 80 32839ft 485kts
17-May-20 14:29 33.769257 -115.908013 72 32838ft 488kts
17-May-20 14:30 33.812096 -115.753651 72 32838ft 488kts
17-May-20 14:31 33.854747 -115.598848 72 32838ft 488kts
17-May-20 14:32 33.897141 -115.444122 72 32837ft 488kts
17-May-20 14:33 33.939099 -115.288737 73 32865ft 488kts
17-May-20 14:34 33.980933 -115.133811 72 32873ft 487kts
17-May-20 14:35 34.022691 -114.978848 72 32873ft 485kts
17-May-20 14:36 34.063820 -114.825364 72 32873ft 485kts
17-May-20 14:38 34.103678 -114.670588 81 32870ft 483kts
17-May-20 14:39 34.116098 -114.509383 85 32872ft 482kts
17-May-20 14:40 34.128744 -114.348785 86 32874ft 482kts
17-May-20 14:41 34.140877 -114.187307 86 32873ft 482kts
17-May-20 14:42 34.153176 -114.026399 86 32873ft 482kts
17-May-20 14:43 34.165331 -113.865450 86 32872ft 482kts
17-May-20 14:44 34.177321 -113.703865 86 32873ft 482kts
17-May-20 14:45 34.189027 -113.543206 86 32873ft 482kts
17-May-20 14:46 34.200580 -113.381659 86 32991ft 482kts
17-May-20 14:47 34.211402 -113.220683 86 33102ft 482kts
17-May-20 14:48 34.222429 -113.059892 86 33119ft 481kts
17-May-20 14:49 34.233338 -112.898247 86 33137ft 483kts
17-May-20 14:50 34.241114 -112.781039 86 33148ft 484kts
17-May-20 14:51 34.251676 -112.619017 86 33148ft 484kts
17-May-20 14:52 34.262025 -112.456914 86 33148ft 484kts
17-May-20 14:53 34.271844 -112.295212 87 33148ft 483kts
17-May-20 14:54 34.281545 -112.133143 87 33147ft 484kts
17-May-20 14:54 34.289643 -111.997961 87 33151ft 484kts
17-May-20 14:55 34.299138 -111.836206 87 33158ft 484kts
17-May-20 14:57 34.309969 -111.646885 87 33171ft 484kts
17-May-20 14:57 34.317546 -111.511035 87 33175ft 484kts
17-May-20 14:58 34.326283 -111.349358 87 33175ft 484kts
17-May-20 15:00 34.336029 -111.159617 87 33174ft 484kts
17-May-20 15:00 34.343021 -111.024522 87 33175ft 483kts
17-May-20 15:01 34.351117 -110.864044 87 33175ft 481kts
17-May-20 15:02 34.359063 -110.702701 87 33169ft 481kts
17-May-20 15:03 34.366768 -110.540996 87 33155ft 481kts
17-May-20 15:04 34.374334 -110.380421 86 33157ft 473kts
17-May-20 15:05 34.381038 -110.223159 87 33166ft 468kts
17-May-20 15:06 34.388073 -110.062457 87 33174ft 483kts
17-May-20 15:07 34.394984 -109.900623 87 33192ft 482kts
17-May-20 15:08 34.401670 -109.739017 87 33127ft 481kts
17-May-20 15:09 34.408160 -109.576813 87 33103ft 482kts
17-May-20 15:10 34.414413 -109.414886 87 33102ft 482kts
17-May-20 15:11 34.420058 -109.252776 88 33101ft 482kts
17-May-20 15:12 34.425972 -109.090665 87 33101ft 485kts
17-May-20 15:13 34.431913 -108.927170 87 33112ft 487kts
17-May-20 15:14 34.437657 -108.763469 87 33169ft 487kts
17-May-20 15:15 34.443198 -108.599338 87 33191ft 487kts
17-May-20 15:16 34.448432 -108.437917 87 33203ft 487kts
17-May-20 15:17 34.452747 -108.289001 88 33176ft 487kts
17-May-20 15:18 34.457452 -108.124917 87 33168ft 487kts
17-May-20 15:19 34.462119 -107.961061 87 33169ft 487kts
17-May-20 15:20 34.466568 -107.797400 87 33171ft 487kts
17-May-20 15:21 34.470811 -107.633228 87 33142ft 487kts
17-May-20 15:22 34.474829 -107.469257 87 33102ft 487kts
17-May-20 15:23 34.478414 -107.305649 88 33060ft 487kts
17-May-20 15:24 34.481689 -107.141135 88 33050ft 488kts
17-May-20 15:25 34.485041 -106.977066 87 33055ft 487kts
17-May-20 15:26 34.488149 -106.814746 86 33076ft 485kts
17-May-20 15:27 34.491029 -106.653307 86 33084ft 485kts
17-May-20 15:28 34.493717 -106.490465 86 33086ft 484kts
17-May-20 15:29 34.496142 -106.327410 87 33084ft 484kts
17-May-20 15:30 34.497946 -106.163987 87 33095ft 484kts
17-May-20 15:31 34.499976 -106.000721 87 33117ft 484kts
17-May-20 15:32 34.501796 -105.837939 87 33149ft 484kts
17-May-20 15:33 34.503408 -105.674346 87 33139ft 484kts
17-May-20 15:34 34.504796 -105.511528 87 33113ft 484kts
17-May-20 15:35 34.505968 -105.348549 88 33074ft 484kts
17-May-20 15:36 34.506441 -105.185247 88 33067ft 484kts
17-May-20 15:37 34.507158 -105.022205 87 33069ft 486kts
17-May-20 15:38 34.507684 -104.858179 86 33070ft 487kts
17-May-20 15:39 34.507989 -104.694460 86 33071ft 486kts
17-May-20 15:40 34.508076 -104.530520 86 33071ft 486kts
17-May-20 15:41 34.507944 -104.366865 86 33072ft 486kts
17-May-20 15:42 34.507130 -104.202843 87 33067ft 487kts
17-May-20 15:43 34.506532 -104.039474 87 33076ft 487kts
17-May-20 15:44 34.505739 -103.874849 87 33088ft 487kts
17-May-20 15:45 34.504727 -103.710613 87 33089ft 487kts
17-May-20 15:46 34.503495 -103.546652 87 33090ft 487kts
17-May-20 15:47 34.502043 -103.382972 87 33091ft 487kts
17-May-20 15:48 34.499941 -103.218808 88 33090ft 486kts
17-May-20 15:49 34.498041 -103.056611 88 33092ft 476kts
17-May-20 15:50 34.495985 -102.897369 88 33095ft 471kts
17-May-20 15:51 34.484879 -102.738444 94 33096ft 474kts
17-May-20 15:52 34.468934 -102.582743 94 33089ft 474kts
17-May-20 15:53 34.452534 -102.425098 94 33079ft 474kts
17-May-20 15:54 34.435536 -102.267423 95 33077ft 474kts
17-May-20 15:55 34.418663 -102.109966 95 33077ft 474kts
17-May-20 15:56 34.401589 -101.951898 95 33079ft 474kts
17-May-20 15:57 34.384317 -101.793930 95 33079ft 474kts
17-May-20 15:58 34.366842 -101.636062 95 33080ft 474kts
17-May-20 15:59 34.349141 -101.478102 95 33080ft 474kts
17-May-20 16:00 34.331149 -101.320337 96 33078ft 474kts
17-May-20 16:01 34.312765 -101.162838 95 33078ft 474kts
17-May-20 16:02 34.294452 -101.005057 95 33077ft 474kts
17-May-20 16:03 34.275879 -100.846635 95 33040ft 476kts
17-May-20 16:04 34.257210 -100.689195 94 33036ft 475kts
17-May-20 16:05 34.238289 -100.531510 94 33035ft 474kts
17-May-20 16:06 34.219122 -100.373812 94 33036ft 474kts
17-May-20 16:07 34.197592 -100.216172 100 33036ft 476kts
17-May-20 16:08 34.169535 -100.060236 99 33034ft 476kts
17-May-20 16:09 34.141522 -99.904252 99 33035ft 476kts
17-May-20 16:10 34.113238 -99.747999 99 33028ft 476kts
17-May-20 16:11 34.084822 -99.592262 99 33004ft 476kts
17-May-20 16:12 34.056110 -99.436206 99 33000ft 477kts
17-May-20 16:13 34.026831 -99.280365 100 32998ft 477kts
17-May-20 16:14 33.983303 -99.129276 108 32998ft 480kts
17-May-20 16:15 33.936181 -98.978906 107 33016ft 480kts
17-May-20 16:16 33.890534 -98.833937 107 32454ft 484kts
17-May-20 16:17 33.847416 -98.698018 107 29975ft 477kts
17-May-20 16:18 33.800132 -98.549227 107 30077ft 489kts
17-May-20 16:19 33.751638 -98.396556 107 26839ft 489kts
17-May-20 16:20 33.703315 -98.246278 108 23756ft 460kts
17-May-20 16:21 33.660988 -98.114151 108 20672ft 409kts
17-May-20 16:22 33.621142 -97.990198 108 17801ft 392kts
17-May-20 16:23 33.582116 -97.869301 108 15709ft 382kts
17-May-20 16:24 33.544107 -97.752008 108 13987ft 374kts
17-May-20 16:25 33.506841 -97.637478 108 12388ft 366kts
17-May-20 16:26 33.470042 -97.524891 109 10837ft 356kts
17-May-20 16:27 33.448805 -97.417737 87 9854ft 310kts
17-May-20 16:29 33.445089 -97.315165 89 9278ft 307kts
17-May-20 16:30 33.441037 -97.213335 89 8782ft 304kts
17-May-20 16:31 33.437118 -97.112397 88 8285ft 303kts
17-May-20 16:32 33.433147 -97.011986 88 7791ft 301kts
17-May-20 16:33 33.427376 -96.912465 105 7145ft 303kts
17-May-20 16:34 33.379763 -96.829131 154 6969ft 310kts
17-May-20 16:35 33.296402 -96.808326 170 6519ft 306kts
17-May-20 16:36 33.213495 -96.787712 169 6022ft 303kts
17-May-20 16:37 33.131212 -96.767052 169 5546ft 300kts
17-May-20 16:38 33.049902 -96.746651 169 5082ft 298kts
17-May-20 16:39 32.969195 -96.726438 169 4625ft 296kts
17-May-20 16:40 32.889006 -96.706396 169 4164ft 293kts
17-May-20 16:41 32.809996 -96.694406 197 3024ft 270kts
17-May-20 16:42 32.769206 -96.742685 285 2361ft 183kts
17-May-20 16:43 32.792245 -96.781586 317 2131ft 132kts
17-May-20 16:43 32.815089 -96.808130 316 1329ft 138kts
17-May-20 16:45 32.845845 -96.843645 316 501ft 116kts
17-May-20 16:46 32.850856 -96.852238 161 493ft 15kts
17-May-20 16:46 32.848362 -96.849362 136 493ft 12kts
17-May-20 16:48 32.847263 -96.850814 204 493ft 3kts
17-May-20 16:48 32.846574 -96.850857 180 493ft 0kts
17-May-20 16:49 32.846498 -96.850858 180 493ft 0kts
17-May-20 16:50 32.846498 -96.850858 180 493ft 0kts
17-May-20 16:51 32.846498 -96.850858 180 493ft 0kts
17-May-20 16:52 32.846498 -96.850858 180 493ft 0kts
17-May-20 16:53 32.846498 -96.850858 180 493ft 0kts
17-May-20 16:54 32.846498 -96.850858 180 493ft 0kts
17-May-20 16:55 32.846498 -96.850858 180 493ft 0kts

Navigation Log

Ident Type
Flight plan parsing failed, navigation log unavailable